Terminal Aerodrome Forecast
Issued by NWS Cleveland, OH

Home | Current Version | Previous Version | Text Only | Print | Product List | Glossary Off
Versions: 1 2 3 4 5 6 7 8 9 10 11 12 13 14 15 16 17

000
FTUS41 KCLE 201133
TAFYNG
TAF
KYNG 201133Z 2012/2112 05007KT 4SM BR SCT005 OVC022
      TEMPO 2012/2014 6SM BR BKN012
     FM201400 05008KT P6SM BKN018 OVC035
     FM201700 08009KT P6SM BKN035
     FM210900 13010KT 6SM BR VCSH BKN030=

USA.gov is the U.S. government's official web portal to all federal, state and local government web resources and services.